sensor_id;sensor_type;location;lat;lon;timestamp;temperature;humidity
59961;DHT22;55902;-37.980;-63.602;2024-01-07T00:01:03;28.60;53.40
59961;DHT22;55902;-37.980;-63.602;2024-01-07T00:03:30;28.50;54.30
59961;DHT22;55902;-37.980;-63.602;2024-01-07T00:05:56;28.40;53.60
59961;DHT22;55902;-37.980;-63.602;2024-01-07T00:08:23;28.30;53.50
59961;DHT22;55902;-37.980;-63.602;2024-01-07T00:10:50;28.20;53.30
59961;DHT22;55902;-37.980;-63.602;2024-01-07T00:13:17;28.10;53.80
59961;DHT22;55902;-37.980;-63.602;2024-01-07T00:15:44;28.00;54.30
59961;DHT22;55902;-37.980;-63.602;2024-01-07T00:18:11;28.00;54.40
59961;DHT22;55902;-37.980;-63.602;2024-01-07T00:20:39;27.90;55.90
59961;DHT22;55902;-37.980;-63.602;2024-01-07T00:23:05;27.80;56.00
59961;DHT22;55902;-37.980;-63.602;2024-01-07T00:25:32;27.70;56.60
59961;DHT22;55902;-37.980;-63.602;2024-01-07T00:27:59;27.70;56.80
59961;DHT22;55902;-37.980;-63.602;2024-01-07T00:30:27;27.60;55.90
59961;DHT22;55902;-37.980;-63.602;2024-01-07T00:32:55;27.50;55.40
59961;DHT22;55902;-37.980;-63.602;2024-01-07T00:35:22;27.40;55.50
59961;DHT22;55902;-37.980;-63.602;2024-01-07T00:37:49;27.40;55.60
59961;DHT22;55902;-37.980;-63.602;2024-01-07T00:40:16;27.30;54.80
59961;DHT22;55902;-37.980;-63.602;2024-01-07T00:42:43;27.30;55.80
59961;DHT22;55902;-37.980;-63.602;2024-01-07T00:45:10;27.20;55.80
59961;DHT22;55902;-37.980;-63.602;2024-01-07T00:57:42;26.80;66.80
59961;DHT22;55902;-37.980;-63.602;2024-01-07T01:00:10;26.70;63.90
59961;DHT22;55902;-37.980;-63.602;2024-01-07T01:02:37;26.60;66.00
59961;DHT22;55902;-37.980;-63.602;2024-01-07T01:05:05;26.50;63.70
59961;DHT22;55902;-37.980;-63.602;2024-01-07T01:07:32;26.50;64.30
59961;DHT22;55902;-37.980;-63.602;2024-01-07T01:09:59;26.40;63.00
59961;DHT22;55902;-37.980;-63.602;2024-01-07T01:12:26;26.30;62.80
59961;DHT22;55902;-37.980;-63.602;2024-01-07T01:14:53;26.30;62.60
59961;DHT22;55902;-37.980;-63.602;2024-01-07T01:17:19;26.30;62.00
59961;DHT22;55902;-37.980;-63.602;2024-01-07T01:19:46;26.20;61.10
59961;DHT22;55902;-37.980;-63.602;2024-01-07T01:22:13;26.20;60.50
59961;DHT22;55902;-37.980;-63.602;2024-01-07T01:24:40;26.20;60.50
59961;DHT22;55902;-37.980;-63.602;2024-01-07T01:27:08;26.10;62.80
59961;DHT22;55902;-37.980;-63.602;2024-01-07T01:29:37;26.10;63.80
59961;DHT22;55902;-37.980;-63.602;2024-01-07T01:32:04;26.10;62.80
59961;DHT22;55902;-37.980;-63.602;2024-01-07T01:34:32;26.10;60.70
59961;DHT22;55902;-37.980;-63.602;2024-01-07T01:36:59;26.00;60.60
59961;DHT22;55902;-37.980;-63.602;2024-01-07T01:39:26;26.00;59.80
59961;DHT22;55902;-37.980;-63.602;2024-01-07T01:41:58;26.00;59.40
59961;DHT22;55902;-37.980;-63.602;2024-01-07T01:44:25;25.90;61.80
59961;DHT22;55902;-37.980;-63.602;2024-01-07T01:47:01;25.90;62.40
59961;DHT22;55902;-37.980;-63.602;2024-01-07T01:50:54;25.90;62.70
59961;DHT22;55902;-37.980;-63.602;2024-01-07T01:53:30;25.80;59.50
59961;DHT22;55902;-37.980;-63.602;2024-01-07T01:55:58;25.70;59.70
59961;DHT22;55902;-37.980;-63.602;2024-01-07T02:01:52;25.60;62.70
59961;DHT22;55902;-37.980;-63.602;2024-01-07T02:04:19;25.50;63.10
59961;DHT22;55902;-37.980;-63.602;2024-01-07T02:06:46;25.40;64.50
59961;DHT22;55902;-37.980;-63.602;2024-01-07T02:09:13;25.30;64.30
59961;DHT22;55902;-37.980;-63.602;2024-01-07T02:11:40;25.20;65.60
59961;DHT22;55902;-37.980;-63.602;2024-01-07T02:14:07;25.10;64.30
59961;DHT22;55902;-37.980;-63.602;2024-01-07T02:16:34;25.00;63.20
59961;DHT22;55902;-37.980;-63.602;2024-01-07T02:19:01;24.90;64.30
59961;DHT22;55902;-37.980;-63.602;2024-01-07T02:21:28;24.80;68.20
59961;DHT22;55902;-37.980;-63.602;2024-01-07T02:23:55;24.70;67.60
59961;DHT22;55902;-37.980;-63.602;2024-01-07T02:26:22;24.60;68.80
59961;DHT22;55902;-37.980;-63.602;2024-01-07T02:28:49;24.50;67.00
59961;DHT22;55902;-37.980;-63.602;2024-01-07T02:31:16;24.50;67.80
59961;DHT22;55902;-37.980;-63.602;2024-01-07T02:33:43;24.40;67.20
59961;DHT22;55902;-37.980;-63.602;2024-01-07T02:36:09;24.40;66.50
59961;DHT22;55902;-37.980;-63.602;2024-01-07T02:38:36;24.30;70.50
59961;DHT22;55902;-37.980;-63.602;2024-01-07T02:41:04;24.20;68.60
59961;DHT22;55902;-37.980;-63.602;2024-01-07T02:43:31;24.20;66.60
59961;DHT22;55902;-37.980;-63.602;2024-01-07T02:45:58;24.10;67.90
59961;DHT22;55902;-37.980;-63.602;2024-01-07T02:48:24;24.00;67.00
59961;DHT22;55902;-37.980;-63.602;2024-01-07T02:50:52;23.90;66.70
59961;DHT22;55902;-37.980;-63.602;2024-01-07T02:53:18;23.90;68.30
59961;DHT22;55902;-37.980;-63.602;2024-01-07T02:55:45;23.80;73.90
59961;DHT22;55902;-37.980;-63.602;2024-01-07T02:58:12;23.70;73.40
59961;DHT22;55902;-37.980;-63.602;2024-01-07T03:00:39;23.70;70.10
59961;DHT22;55902;-37.980;-63.602;2024-01-07T03:03:06;23.60;68.20
59961;DHT22;55902;-37.980;-63.602;2024-01-07T03:05:33;23.50;73.30
59961;DHT22;55902;-37.980;-63.602;2024-01-07T03:08:03;23.50;75.40
59961;DHT22;55902;-37.980;-63.602;2024-01-07T03:10:30;23.40;75.90
59961;DHT22;55902;-37.980;-63.602;2024-01-07T03:12:57;23.30;78.00
59961;DHT22;55902;-37.980;-63.602;2024-01-07T03:15:24;23.30;76.60
59961;DHT22;55902;-37.980;-63.602;2024-01-07T03:17:51;23.30;74.00
59961;DHT22;55902;-37.980;-63.602;2024-01-07T03:20:18;23.30;76.00
59961;DHT22;55902;-37.980;-63.602;2024-01-07T03:22:45;23.20;76.70
59961;DHT22;55902;-37.980;-63.602;2024-01-07T03:25:12;23.20;76.00
59961;DHT22;55902;-37.980;-63.602;2024-01-07T03:27:39;23.20;74.10
59961;DHT22;55902;-37.980;-63.602;2024-01-07T03:30:06;23.20;76.80
59961;DHT22;55902;-37.980;-63.602;2024-01-07T03:32:34;23.10;78.40
59961;DHT22;55902;-37.980;-63.602;2024-01-07T03:35:02;23.10;78.10
59961;DHT22;55902;-37.980;-63.602;2024-01-07T03:37:29;23.10;74.60
59961;DHT22;55902;-37.980;-63.602;2024-01-07T03:39:56;23.00;77.10
59961;DHT22;55902;-37.980;-63.602;2024-01-07T03:42:22;23.00;76.00
59961;DHT22;55902;-37.980;-63.602;2024-01-07T03:44:49;23.00;76.10
59961;DHT22;55902;-37.980;-63.602;2024-01-07T03:47:17;22.90;77.20
59961;DHT22;55902;-37.980;-63.602;2024-01-07T03:49:44;22.90;78.90
59961;DHT22;55902;-37.980;-63.602;2024-01-07T03:52:10;22.80;79.40
59961;DHT22;55902;-37.980;-63.602;2024-01-07T03:54:37;22.80;79.90
59961;DHT22;55902;-37.980;-63.602;2024-01-07T03:57:04;22.70;78.60
59961;DHT22;55902;-37.980;-63.602;2024-01-07T03:59:31;22.60;80.20
59961;DHT22;55902;-37.980;-63.602;2024-01-07T04:01:58;22.60;81.10
59961;DHT22;55902;-37.980;-63.602;2024-01-07T04:04:25;22.50;80.80
59961;DHT22;55902;-37.980;-63.602;2024-01-07T04:06:52;22.50;81.70
59961;DHT22;55902;-37.980;-63.602;2024-01-07T04:09:22;22.50;79.50
59961;DHT22;55902;-37.980;-63.602;2024-01-07T04:11:49;22.40;79.50
59961;DHT22;55902;-37.980;-63.602;2024-01-07T04:14:16;22.40;83.40
59961;DHT22;55902;-37.980;-63.602;2024-01-07T04:16:43;22.30;82.60
59961;DHT22;55902;-37.980;-63.602;2024-01-07T04:19:10;22.20;83.50
59961;DHT22;55902;-37.980;-63.602;2024-01-07T04:21:37;22.10;85.80
59961;DHT22;55902;-37.980;-63.602;2024-01-07T04:24:04;22.00;86.90
59961;DHT22;55902;-37.980;-63.602;2024-01-07T04:26:31;21.90;85.50
59961;DHT22;55902;-37.980;-63.602;2024-01-07T04:29:01;21.80;87.50
59961;DHT22;55902;-37.980;-63.602;2024-01-07T04:31:28;21.70;89.10
59961;DHT22;55902;-37.980;-63.602;2024-01-07T04:33:55;21.70;89.60
59961;DHT22;55902;-37.980;-63.602;2024-01-07T04:36:22;21.70;89.70
59961;DHT22;55902;-37.980;-63.602;2024-01-07T04:38:49;21.70;90.60
59961;DHT22;55902;-37.980;-63.602;2024-01-07T04:41:16;21.70;91.10
59961;DHT22;55902;-37.980;-63.602;2024-01-07T04:43:43;21.70;91.20
59961;DHT22;55902;-37.980;-63.602;2024-01-07T04:46:11;21.70;91.10
59961;DHT22;55902;-37.980;-63.602;2024-01-07T04:48:38;21.70;91.20
59961;DHT22;55902;-37.980;-63.602;2024-01-07T04:54:27;21.80;91.70
59961;DHT22;55902;-37.980;-63.602;2024-01-07T04:56:54;21.70;92.30
59961;DHT22;55902;-37.980;-63.602;2024-01-07T04:59:21;21.70;92.40
59961;DHT22;55902;-37.980;-63.602;2024-01-07T05:01:48;21.60;92.60
59961;DHT22;55902;-37.980;-63.602;2024-01-07T05:04:15;21.60;92.50
59961;DHT22;55902;-37.980;-63.602;2024-01-07T05:06:45;21.70;92.40
59961;DHT22;55902;-37.980;-63.602;2024-01-07T05:09:11;21.60;92.60
59961;DHT22;55902;-37.980;-63.602;2024-01-07T05:11:41;21.70;92.60
59961;DHT22;55902;-37.980;-63.602;2024-01-07T05:14:10;21.70;92.60
59961;DHT22;55902;-37.980;-63.602;2024-01-07T05:16:37;21.70;92.60
59961;DHT22;55902;-37.980;-63.602;2024-01-07T05:19:07;21.70;92.50
59961;DHT22;55902;-37.980;-63.602;2024-01-07T05:21:34;21.70;92.20
59961;DHT22;55902;-37.980;-63.602;2024-01-07T05:27:23;21.70;92.10
59961;DHT22;55902;-37.980;-63.602;2024-01-07T05:29:50;21.70;91.90
59961;DHT22;55902;-37.980;-63.602;2024-01-07T05:32:17;21.70;92.70
59961;DHT22;55902;-37.980;-63.602;2024-01-07T05:34:43;21.70;92.60
59961;DHT22;55902;-37.980;-63.602;2024-01-07T05:37:10;21.60;92.70
59961;DHT22;55902;-37.980;-63.602;2024-01-07T05:39:37;21.60;93.00
59961;DHT22;55902;-37.980;-63.602;2024-01-07T05:42:04;21.60;93.10
59961;DHT22;55902;-37.980;-63.602;2024-01-07T05:44:31;21.60;92.90
59961;DHT22;55902;-37.980;-63.602;2024-01-07T05:46:58;21.50;93.20
59961;DHT22;55902;-37.980;-63.602;2024-01-07T05:49:25;21.60;93.10
59961;DHT22;55902;-37.980;-63.602;2024-01-07T05:51:52;21.50;93.20
59961;DHT22;55902;-37.980;-63.602;2024-01-07T05:54:20;21.40;93.50
59961;DHT22;55902;-37.980;-63.602;2024-01-07T05:56:51;21.40;93.60
59961;DHT22;55902;-37.980;-63.602;2024-01-07T05:59:18;21.40;94.00
59961;DHT22;55902;-37.980;-63.602;2024-01-07T06:01:45;21.30;93.90
59961;DHT22;55902;-37.980;-63.602;2024-01-07T06:04:12;21.30;93.90
59961;DHT22;55902;-37.980;-63.602;2024-01-07T06:06:39;21.30;94.00
59961;DHT22;55902;-37.980;-63.602;2024-01-07T06:09:06;21.30;94.00
59961;DHT22;55902;-37.980;-63.602;2024-01-07T06:11:33;21.30;93.80
59961;DHT22;55902;-37.980;-63.602;2024-01-07T06:14:00;21.20;94.40
59961;DHT22;55902;-37.980;-63.602;2024-01-07T06:16:27;21.20;94.00
59961;DHT22;55902;-37.980;-63.602;2024-01-07T06:18:54;21.10;94.30
59961;DHT22;55902;-37.980;-63.602;2024-01-07T06:21:21;21.10;94.60
59961;DHT22;55902;-37.980;-63.602;2024-01-07T06:23:48;21.10;94.50
59961;DHT22;55902;-37.980;-63.602;2024-01-07T06:26:15;21.00;94.80
59961;DHT22;55902;-37.980;-63.602;2024-01-07T06:28:42;21.00;94.90
59961;DHT22;55902;-37.980;-63.602;2024-01-07T06:31:09;20.90;95.10
59961;DHT22;55902;-37.980;-63.602;2024-01-07T06:33:36;20.90;95.30
59961;DHT22;55902;-37.980;-63.602;2024-01-07T06:36:03;20.90;95.30
59961;DHT22;55902;-37.980;-63.602;2024-01-07T06:38:30;20.80;95.50
59961;DHT22;55902;-37.980;-63.602;2024-01-07T06:40:57;20.80;95.80
59961;DHT22;55902;-37.980;-63.602;2024-01-07T06:43:28;20.80;95.70
59961;DHT22;55902;-37.980;-63.602;2024-01-07T06:45:55;20.70;96.10
59961;DHT22;55902;-37.980;-63.602;2024-01-07T06:48:22;20.70;96.20
59961;DHT22;55902;-37.980;-63.602;2024-01-07T06:50:49;20.70;96.10
59961;DHT22;55902;-37.980;-63.602;2024-01-07T06:53:16;20.70;96.30
59961;DHT22;55902;-37.980;-63.602;2024-01-07T06:55:43;20.60;95.90
59961;DHT22;55902;-37.980;-63.602;2024-01-07T06:58:10;20.60;95.90
59961;DHT22;55902;-37.980;-63.602;2024-01-07T07:00:37;20.60;95.70
59961;DHT22;55902;-37.980;-63.602;2024-01-07T07:03:04;20.60;96.00
59961;DHT22;55902;-37.980;-63.602;2024-01-07T07:05:31;20.60;96.30
59961;DHT22;55902;-37.980;-63.602;2024-01-07T07:07:59;20.50;96.70
59961;DHT22;55902;-37.980;-63.602;2024-01-07T07:28:34;20.20;98.40
59961;DHT22;55902;-37.980;-63.602;2024-01-07T07:31:02;20.10;98.20
59961;DHT22;55902;-37.980;-63.602;2024-01-07T07:33:29;20.20;98.40
59961;DHT22;55902;-37.980;-63.602;2024-01-07T07:35:56;20.10;98.80
59961;DHT22;55902;-37.980;-63.602;2024-01-07T07:38:23;20.10;98.80
59961;DHT22;55902;-37.980;-63.602;2024-01-07T07:40:50;20.10;99.00
59961;DHT22;55902;-37.980;-63.602;2024-01-07T07:43:19;20.10;99.60
59961;DHT22;55902;-37.980;-63.602;2024-01-07T07:45:47;20.10;99.80
59961;DHT22;55902;-37.980;-63.602;2024-01-07T07:48:14;20.10;99.80
59961;DHT22;55902;-37.980;-63.602;2024-01-07T07:50:41;20.10;99.90
59961;DHT22;55902;-37.980;-63.602;2024-01-07T07:53:08;20.10;99.90
59961;DHT22;55902;-37.980;-63.602;2024-01-07T07:55:35;20.00;99.90
59961;DHT22;55902;-37.980;-63.602;2024-01-07T08:08:07;20.00;99.90
59961;DHT22;55902;-37.980;-63.602;2024-01-07T08:10:34;19.90;99.90
59961;DHT22;55902;-37.980;-63.602;2024-01-07T08:13:01;19.90;99.90
59961;DHT22;55902;-37.980;-63.602;2024-01-07T08:15:28;19.90;99.90
59961;DHT22;55902;-37.980;-63.602;2024-01-07T08:17:55;19.80;99.90
59961;DHT22;55902;-37.980;-63.602;2024-01-07T08:20:22;19.80;99.90
59961;DHT22;55902;-37.980;-63.602;2024-01-07T08:22:49;19.80;99.90
59961;DHT22;55902;-37.980;-63.602;2024-01-07T08:25:16;19.80;99.90
59961;DHT22;55902;-37.980;-63.602;2024-01-07T08:27:43;19.80;99.90
59961;DHT22;55902;-37.980;-63.602;2024-01-07T08:30:12;19.80;99.90
59961;DHT22;55902;-37.980;-63.602;2024-01-07T08:32:40;19.90;99.90
59961;DHT22;55902;-37.980;-63.602;2024-01-07T08:35:07;19.90;99.90
59961;DHT22;55902;-37.980;-63.602;2024-01-07T08:37:35;19.90;99.90
59961;DHT22;55902;-37.980;-63.602;2024-01-07T08:40:02;19.90;99.90
59961;DHT22;55902;-37.980;-63.602;2024-01-07T08:42:30;20.00;99.90
59961;DHT22;55902;-37.980;-63.602;2024-01-07T08:44:57;20.00;99.90
59961;DHT22;55902;-37.980;-63.602;2024-01-07T08:47:26;19.90;99.90
59961;DHT22;55902;-37.980;-63.602;2024-01-07T08:49:54;19.90;99.90
59961;DHT22;55902;-37.980;-63.602;2024-01-07T08:52:21;19.90;99.90
59961;DHT22;55902;-37.980;-63.602;2024-01-07T08:54:48;19.90;99.90
59961;DHT22;55902;-37.980;-63.602;2024-01-07T08:57:15;19.80;99.90
59961;DHT22;55902;-37.980;-63.602;2024-01-07T08:59:42;19.90;99.90
59961;DHT22;55902;-37.980;-63.602;2024-01-07T09:02:09;19.80;99.90
59961;DHT22;55902;-37.980;-63.602;2024-01-07T09:04:36;19.80;99.90
59961;DHT22;55902;-37.980;-63.602;2024-01-07T09:07:04;19.70;99.90
59961;DHT22;55902;-37.980;-63.602;2024-01-07T09:09:31;19.70;99.90
59961;DHT22;55902;-37.980;-63.602;2024-01-07T09:11:58;19.70;99.90
59961;DHT22;55902;-37.980;-63.602;2024-01-07T09:14:26;19.70;99.90
59961;DHT22;55902;-37.980;-63.602;2024-01-07T09:16:56;19.70;99.90
59961;DHT22;55902;-37.980;-63.602;2024-01-07T09:19:23;19.70;99.90
59961;DHT22;55902;-37.980;-63.602;2024-01-07T09:21:50;19.70;99.90
59961;DHT22;55902;-37.980;-63.602;2024-01-07T09:24:17;19.70;99.90
59961;DHT22;55902;-37.980;-63.602;2024-01-07T09:26:45;19.70;99.90
59961;DHT22;55902;-37.980;-63.602;2024-01-07T09:29:12;19.70;99.90
59961;DHT22;55902;-37.980;-63.602;2024-01-07T09:31:40;19.70;99.90
59961;DHT22;55902;-37.980;-63.602;2024-01-07T09:34:07;19.70;99.90
59961;DHT22;55902;-37.980;-63.602;2024-01-07T09:36:34;19.70;99.90
59961;DHT22;55902;-37.980;-63.602;2024-01-07T09:39:02;19.70;99.90
59961;DHT22;55902;-37.980;-63.602;2024-01-07T09:41:32;19.70;99.90
59961;DHT22;55902;-37.980;-63.602;2024-01-07T09:44:00;19.70;99.90
59961;DHT22;55902;-37.980;-63.602;2024-01-07T09:46:29;19.80;99.90
59961;DHT22;55902;-37.980;-63.602;2024-01-07T09:59:04;19.80;99.90
59961;DHT22;55902;-37.980;-63.602;2024-01-07T10:01:31;19.90;99.90
59961;DHT22;55902;-37.980;-63.602;2024-01-07T10:03:59;19.90;99.90
59961;DHT22;55902;-37.980;-63.602;2024-01-07T10:06:26;20.00;99.90
59961;DHT22;55902;-37.980;-63.602;2024-01-07T10:08:53;20.00;99.90
59961;DHT22;55902;-37.980;-63.602;2024-01-07T10:11:21;20.10;99.90
59961;DHT22;55902;-37.980;-63.602;2024-01-07T10:13:49;20.10;99.90
59961;DHT22;55902;-37.980;-63.602;2024-01-07T10:16:18;20.10;99.90
59961;DHT22;55902;-37.980;-63.602;2024-01-07T10:18:45;20.10;99.90
59961;DHT22;55902;-37.980;-63.602;2024-01-07T10:21:12;20.20;99.90
59961;DHT22;55902;-37.980;-63.602;2024-01-07T10:23:38;20.20;99.90
59961;DHT22;55902;-37.980;-63.602;2024-01-07T10:26:05;20.30;99.90
59961;DHT22;55902;-37.980;-63.602;2024-01-07T10:28:33;20.30;99.90
59961;DHT22;55902;-37.980;-63.602;2024-01-07T10:31:00;20.40;99.90
59961;DHT22;55902;-37.980;-63.602;2024-01-07T10:33:31;20.50;99.90
59961;DHT22;55902;-37.980;-63.602;2024-01-07T10:36:06;20.60;99.90
59961;DHT22;55902;-37.980;-63.602;2024-01-07T10:41:56;20.90;99.90
59961;DHT22;55902;-37.980;-63.602;2024-01-07T10:44:29;21.10;99.90
59961;DHT22;55902;-37.980;-63.602;2024-01-07T10:46:57;21.30;99.90
59961;DHT22;55902;-37.980;-63.602;2024-01-07T10:49:26;21.40;99.90
59961;DHT22;55902;-37.980;-63.602;2024-01-07T10:52:06;21.60;99.90
59961;DHT22;55902;-37.980;-63.602;2024-01-07T10:54:35;21.80;99.90
59961;DHT22;55902;-37.980;-63.602;2024-01-07T10:59:47;22.10;99.90
59961;DHT22;55902;-37.980;-63.602;2024-01-07T11:02:17;22.20;99.90
59961;DHT22;55902;-37.980;-63.602;2024-01-07T11:04:45;22.50;99.90
59961;DHT22;55902;-37.980;-63.602;2024-01-07T11:10:32;22.50;99.90
59961;DHT22;55902;-37.980;-63.602;2024-01-07T11:12:57;22.60;99.90
59961;DHT22;55902;-37.980;-63.602;2024-01-07T11:18:21;22.80;99.90
59961;DHT22;55902;-37.980;-63.602;2024-01-07T11:20:49;23.00;99.90
59961;DHT22;55902;-37.980;-63.602;2024-01-07T11:23:32;23.30;99.90
59961;DHT22;55902;-37.980;-63.602;2024-01-07T11:26:03;23.70;99.90
59961;DHT22;55902;-37.980;-63.602;2024-01-07T11:31:14;23.80;99.90
59961;DHT22;55902;-37.980;-63.602;2024-01-07T11:33:48;23.80;99.90
59961;DHT22;55902;-37.980;-63.602;2024-01-07T11:36:16;23.90;99.90
59961;DHT22;55902;-37.980;-63.602;2024-01-07T11:38:50;24.10;99.90
59961;DHT22;55902;-37.980;-63.602;2024-01-07T11:41:19;24.10;99.90
59961;DHT22;55902;-37.980;-63.602;2024-01-07T11:43:56;24.20;99.90
59961;DHT22;55902;-37.980;-63.602;2024-01-07T11:46:26;24.50;99.90
59961;DHT22;55902;-37.980;-63.602;2024-01-07T11:48:58;24.60;99.90
59961;DHT22;55902;-37.980;-63.602;2024-01-07T11:51:34;24.70;99.90
59961;DHT22;55902;-37.980;-63.602;2024-01-07T11:54:02;24.90;99.90
59961;DHT22;55902;-37.980;-63.602;2024-01-07T11:56:29;24.90;99.90
59961;DHT22;55902;-37.980;-63.602;2024-01-07T11:58:59;24.90;99.90
59961;DHT22;55902;-37.980;-63.602;2024-01-07T12:01:26;25.00;99.90
59961;DHT22;55902;-37.980;-63.602;2024-01-07T12:03:53;25.00;99.90
59961;DHT22;55902;-37.980;-63.602;2024-01-07T12:06:20;25.00;99.90
59961;DHT22;55902;-37.980;-63.602;2024-01-07T12:08:47;25.10;99.90
59961;DHT22;55902;-37.980;-63.602;2024-01-07T12:11:14;25.40;99.90
59961;DHT22;55902;-37.980;-63.602;2024-01-07T12:13:42;25.90;99.90
59961;DHT22;55902;-37.980;-63.602;2024-01-07T12:16:10;26.50;99.90
59961;DHT22;55902;-37.980;-63.602;2024-01-07T12:18:38;27.00;99.90
59961;DHT22;55902;-37.980;-63.602;2024-01-07T12:38:29;29.40;96.10
59961;DHT22;55902;-37.980;-63.602;2024-01-07T12:40:56;29.70;95.40
59961;DHT22;55902;-37.980;-63.602;2024-01-07T12:43:24;30.00;95.00
59961;DHT22;55902;-37.980;-63.602;2024-01-07T12:45:51;30.30;94.40
59961;DHT22;55902;-37.980;-63.602;2024-01-07T12:48:19;30.40;93.30
59961;DHT22;55902;-37.980;-63.602;2024-01-07T12:50:46;30.70;93.10
59961;DHT22;55902;-37.980;-63.602;2024-01-07T12:53:13;31.00;93.00
59961;DHT22;55902;-37.980;-63.602;2024-01-07T12:55:40;31.30;91.10
59961;DHT22;55902;-37.980;-63.602;2024-01-07T12:58:07;31.50;91.40
59961;DHT22;55902;-37.980;-63.602;2024-01-07T13:00:34;31.80;88.30
59961;DHT22;55902;-37.980;-63.602;2024-01-07T13:03:01;32.10;90.80
59961;DHT22;55902;-37.980;-63.602;2024-01-07T13:05:30;32.40;90.50
59961;DHT22;55902;-37.980;-63.602;2024-01-07T13:07:57;32.50;85.90
59961;DHT22;55902;-37.980;-63.602;2024-01-07T13:10:24;32.40;85.60
59961;DHT22;55902;-37.980;-63.602;2024-01-07T13:12:51;32.40;83.50
59961;DHT22;55902;-37.980;-63.602;2024-01-07T13:15:18;32.70;86.40
59961;DHT22;55902;-37.980;-63.602;2024-01-07T13:17:45;33.00;80.80
59961;DHT22;55902;-37.980;-63.602;2024-01-07T13:20:12;33.20;84.10
59961;DHT22;55902;-37.980;-63.602;2024-01-07T13:22:40;33.40;81.70
59961;DHT22;55902;-37.980;-63.602;2024-01-07T13:25:07;33.30;77.50
59961;DHT22;55902;-37.980;-63.602;2024-01-07T13:34:18;33.70;80.30
59961;DHT22;55902;-37.980;-63.602;2024-01-07T13:36:45;33.60;77.20
59961;DHT22;55902;-37.980;-63.602;2024-01-07T13:47:02;33.40;74.20
59961;DHT22;55902;-37.980;-63.602;2024-01-07T13:49:31;33.40;76.70
59961;DHT22;55902;-37.980;-63.602;2024-01-07T13:51:58;33.60;74.40
59961;DHT22;55902;-37.980;-63.602;2024-01-07T13:54:25;33.80;74.70
59961;DHT22;55902;-37.980;-63.602;2024-01-07T13:56:52;34.00;74.30
59961;DHT22;55902;-37.980;-63.602;2024-01-07T13:59:20;34.30;74.40
59961;DHT22;55902;-37.980;-63.602;2024-01-07T14:01:49;34.60;72.00
59961;DHT22;55902;-37.980;-63.602;2024-01-07T14:04:16;34.70;70.10
59961;DHT22;55902;-37.980;-63.602;2024-01-07T14:06:46;34.90;69.60
59961;DHT22;55902;-37.980;-63.602;2024-01-07T14:09:13;35.10;70.70
59961;DHT22;55902;-37.980;-63.602;2024-01-07T14:11:41;35.00;63.90
59961;DHT22;55902;-37.980;-63.602;2024-01-07T14:14:08;35.00;67.30
59961;DHT22;55902;-37.980;-63.602;2024-01-07T14:16:34;35.30;66.50
59961;DHT22;55902;-37.980;-63.602;2024-01-07T14:19:01;35.70;62.70
59961;DHT22;55902;-37.980;-63.602;2024-01-07T14:21:28;35.90;64.40
59961;DHT22;55902;-37.980;-63.602;2024-01-07T14:23:56;36.20;59.50
59961;DHT22;55902;-37.980;-63.602;2024-01-07T14:26:23;36.30;57.60
59961;DHT22;55902;-37.980;-63.602;2024-01-07T14:28:51;36.40;58.10
59961;DHT22;55902;-37.980;-63.602;2024-01-07T14:31:18;36.20;57.70
59961;DHT22;55902;-37.980;-63.602;2024-01-07T14:33:45;35.90;59.80
59961;DHT22;55902;-37.980;-63.602;2024-01-07T14:36:12;35.50;59.20
59961;DHT22;55902;-37.980;-63.602;2024-01-07T14:38:46;34.90;60.80
59961;DHT22;55902;-37.980;-63.602;2024-01-07T14:41:15;34.10;61.70
59961;DHT22;55902;-37.980;-63.602;2024-01-07T14:43:42;33.60;56.90
59961;DHT22;55902;-37.980;-63.602;2024-01-07T14:46:10;33.60;59.50
59961;DHT22;55902;-37.980;-63.602;2024-01-07T14:48:37;33.30;59.60
59961;DHT22;55902;-37.980;-63.602;2024-01-07T14:51:04;33.40;62.90
59961;DHT22;55902;-37.980;-63.602;2024-01-07T14:53:31;33.20;58.20
59961;DHT22;55902;-37.980;-63.602;2024-01-07T14:55:58;32.80;57.20
59961;DHT22;55902;-37.980;-63.602;2024-01-07T14:58:25;32.60;58.40
59961;DHT22;55902;-37.980;-63.602;2024-01-07T15:00:52;32.40;59.90
59961;DHT22;55902;-37.980;-63.602;2024-01-07T15:03:19;32.30;60.00
59961;DHT22;55902;-37.980;-63.602;2024-01-07T15:05:46;32.10;57.70
59961;DHT22;55902;-37.980;-63.602;2024-01-07T15:18:20;31.10;59.00
59961;DHT22;55902;-37.980;-63.602;2024-01-07T15:20:47;31.00;58.10
59961;DHT22;55902;-37.980;-63.602;2024-01-07T15:23:14;31.00;59.10
59961;DHT22;55902;-37.980;-63.602;2024-01-07T15:25:45;31.10;56.80
59961;DHT22;55902;-37.980;-63.602;2024-01-07T15:28:14;31.00;53.70
59961;DHT22;55902;-37.980;-63.602;2024-01-07T15:30:41;31.10;54.10
59961;DHT22;55902;-37.980;-63.602;2024-01-07T15:33:08;31.20;53.90
59961;DHT22;55902;-37.980;-63.602;2024-01-07T15:35:35;31.20;53.60
59961;DHT22;55902;-37.980;-63.602;2024-01-07T15:38:02;31.20;51.80
59961;DHT22;55902;-37.980;-63.602;2024-01-07T15:40:29;31.30;52.00
59961;DHT22;55902;-37.980;-63.602;2024-01-07T15:42:58;31.30;52.30
59961;DHT22;55902;-37.980;-63.602;2024-01-07T15:45:25;31.30;52.50
59961;DHT22;55902;-37.980;-63.602;2024-01-07T15:47:52;31.30;52.60
59961;DHT22;55902;-37.980;-63.602;2024-01-07T15:50:19;31.20;52.90
59961;DHT22;55902;-37.980;-63.602;2024-01-07T15:52:46;31.10;54.30
59961;DHT22;55902;-37.980;-63.602;2024-01-07T15:55:15;31.10;53.80
59961;DHT22;55902;-37.980;-63.602;2024-01-07T15:57:44;31.20;53.90
59961;DHT22;55902;-37.980;-63.602;2024-01-07T16:00:11;31.40;53.30
59961;DHT22;55902;-37.980;-63.602;2024-01-07T16:02:39;31.60;52.20
59961;DHT22;55902;-37.980;-63.602;2024-01-07T16:05:06;31.80;51.40
59961;DHT22;55902;-37.980;-63.602;2024-01-07T16:07:33;32.10;51.00
59961;DHT22;55902;-37.980;-63.602;2024-01-07T16:10:00;32.80;52.00
59961;DHT22;55902;-37.980;-63.602;2024-01-07T16:12:27;33.50;50.80
59961;DHT22;55902;-37.980;-63.602;2024-01-07T16:14:57;34.00;50.20
59961;DHT22;55902;-37.980;-63.602;2024-01-07T16:17:24;34.50;49.40
59961;DHT22;55902;-37.980;-63.602;2024-01-07T16:19:52;35.10;48.40
59961;DHT22;55902;-37.980;-63.602;2024-01-07T16:22:18;35.50;47.30
59961;DHT22;55902;-37.980;-63.602;2024-01-07T16:24:46;35.70;47.30
59961;DHT22;55902;-37.980;-63.602;2024-01-07T16:27:13;36.00;47.90
59961;DHT22;55902;-37.980;-63.602;2024-01-07T16:33:02;37.00;45.70
59961;DHT22;55902;-37.980;-63.602;2024-01-07T16:35:30;37.50;43.70
59961;DHT22;55902;-37.980;-63.602;2024-01-07T16:37:57;38.00;45.10
59961;DHT22;55902;-37.980;-63.602;2024-01-07T16:40:25;37.90;36.60
59961;DHT22;55902;-37.980;-63.602;2024-01-07T16:42:52;37.80;38.70
59961;DHT22;55902;-37.980;-63.602;2024-01-07T16:45:21;38.00;40.00
59961;DHT22;55902;-37.980;-63.602;2024-01-07T16:51:30;38.10;36.30
59961;DHT22;55902;-37.980;-63.602;2024-01-07T16:53:57;38.20;37.50